createdAt,value
2023-01-26T00:01:19.715Z,99696.75
2023-01-26T00:03:47.125Z,99698.38
2023-01-26T00:06:16.487Z,99694.88
2023-01-26T00:08:45.164Z,99694.81
2023-01-26T00:11:13.892Z,99683.34
2023-01-26T00:13:40.965Z,99681.59
2023-01-26T00:16:13.251Z,99694.09
2023-01-26T00:18:41.570Z,99688.50
2023-01-26T00:21:09.711Z,99684.19
2023-01-26T00:23:36.583Z,99689.88
2023-01-26T00:26:03.834Z,99678.41
2023-01-26T00:28:30.500Z,99689.16
2023-01-26T00:31:09.153Z,99677.19
2023-01-26T00:33:35.876Z,99684.72
2023-01-26T00:36:02.494Z,99679.66
2023-01-26T00:38:29.928Z,99668.75
2023-01-26T00:40:56.667Z,99665.03
2023-01-26T00:43:23.334Z,99668.00
2023-01-26T00:45:49.930Z,99660.66
2023-01-26T00:48:16.678Z,99652.97
2023-01-26T00:50:43.385Z,99650.69
2023-01-26T00:53:10.670Z,99647.69
2023-01-26T00:55:37.384Z,99652.84
2023-01-26T00:58:06.027Z,99657.41
2023-01-26T01:00:34.273Z,99646.69
2023-01-26T01:03:04.330Z,99653.19
2023-01-26T01:05:32.063Z,99653.34
2023-01-26T01:07:59.050Z,99645.00
2023-01-26T01:10:27.726Z,99661.75
2023-01-26T01:12:55.210Z,99646.25
2023-01-26T01:15:21.891Z,99647.59
2023-01-26T01:17:48.960Z,99652.97
2023-01-26T01:20:16.118Z,99642.03
2023-01-26T01:22:42.818Z,99652.00
2023-01-26T01:25:09.763Z,99652.34
2023-01-26T01:27:37.284Z,99660.91
2023-01-26T01:30:08.421Z,99663.41
2023-01-26T01:32:36.513Z,99657.84
2023-01-26T01:35:04.091Z,99666.84
2023-01-26T01:37:30.911Z,99669.66
2023-01-26T01:39:57.531Z,99659.41
2023-01-26T01:42:24.571Z,99649.63
2023-01-26T01:45:29.686Z,99658.88
2023-01-26T01:47:57.917Z,99647.44
2023-01-26T01:50:25.645Z,99636.16
2023-01-26T01:52:53.978Z,99636.34
2023-01-26T01:55:20.822Z,99631.44
2023-01-26T01:57:51.932Z,99629.78
2023-01-26T02:00:21.593Z,99639.00
2023-01-26T02:03:11.290Z,99634.97
2023-01-26T02:05:49.860Z,99620.06
2023-01-26T02:08:17.665Z,99624.28
2023-01-26T02:10:47.045Z,99620.72
2023-01-26T02:13:14.335Z,99621.78
2023-01-26T02:15:40.953Z,99613.03
2023-01-26T02:18:08.362Z,99609.13
2023-01-26T02:20:47.519Z,99601.78
2023-01-26T02:23:59.128Z,99604.47
2023-01-26T02:26:30.923Z,99599.91
2023-01-26T02:28:58.432Z,99587.72
2023-01-26T02:31:25.660Z,99586.16
2023-01-26T02:33:52.431Z,99581.91
2023-01-26T02:36:22.141Z,99587.00
2023-01-26T02:39:16.824Z,99588.88
2023-01-26T02:42:19.790Z,99581.53
2023-01-26T02:44:46.539Z,99576.84
2023-01-26T02:47:14.834Z,99578.22
2023-01-26T02:49:47.818Z,99581.41
2023-01-26T02:52:15.654Z,99572.75
2023-01-26T02:55:00.819Z,99569.56
2023-01-26T02:57:27.547Z,99558.69
2023-01-26T02:59:54.188Z,99570.88
2023-01-26T03:02:21.367Z,99559.00
2023-01-26T03:04:48.256Z,99558.91
2023-01-26T03:07:15.032Z,99565.25
2023-01-26T03:09:41.723Z,99554.78
2023-01-26T03:12:08.992Z,99548.94
2023-01-26T03:14:35.711Z,99552.00
2023-01-26T03:17:02.432Z,99550.84
2023-01-26T03:19:47.591Z,99547.38
2023-01-26T03:22:33.164Z,99552.28
2023-01-26T03:25:18.154Z,99540.81
2023-01-26T03:27:47.146Z,99547.31
2023-01-26T03:30:17.415Z,99540.06
2023-01-26T03:32:44.200Z,99539.00
2023-01-26T03:35:15.537Z,99532.25
2023-01-26T03:37:43.798Z,99524.72
2023-01-26T03:40:30.819Z,99533.75
2023-01-26T03:43:16.449Z,99534.66
2023-01-26T03:46:01.549Z,99539.47
2023-01-26T03:48:46.974Z,99533.75
2023-01-26T03:51:32.398Z,99540.91
2023-01-26T03:54:17.605Z,99532.44
2023-01-26T03:56:45.079Z,99535.72
2023-01-26T03:59:15.670Z,99529.91
2023-01-26T04:02:05.277Z,99538.75
2023-01-26T04:04:51.082Z,99535.53
2023-01-26T04:07:37.549Z,99533.94
2023-01-26T04:10:04.498Z,99527.94
2023-01-26T04:12:31.703Z,99521.84
2023-01-26T04:15:17.604Z,99524.19
2023-01-26T04:18:03.300Z,99526.13
2023-01-26T04:20:48.725Z,99510.41
2023-01-26T04:23:21.695Z,99522.41
2023-01-26T04:25:49.896Z,99527.44
2023-01-26T04:28:16.575Z,99517.63
2023-01-26T04:30:43.347Z,99513.69
2023-01-26T04:33:10.632Z,99518.53
2023-01-26T04:35:37.321Z,99517.88
2023-01-26T04:38:04.195Z,99501.03
2023-01-26T04:40:30.989Z,99509.84
2023-01-26T04:42:57.881Z,99512.41
2023-01-26T04:45:24.566Z,99506.03
2023-01-26T04:47:51.175Z,99513.22
2023-01-26T04:50:18.477Z,99510.22
2023-01-26T04:52:45.147Z,99509.28
2023-01-26T04:55:11.815Z,99511.50
2023-01-26T04:57:38.685Z,99509.72
2023-01-26T05:00:06.546Z,99507.47
2023-01-26T05:02:33.358Z,99501.34
2023-01-26T05:05:00.240Z,99506.34
2023-01-26T05:07:27.016Z,99502.50
2023-01-26T05:09:53.627Z,99495.88
2023-01-26T05:12:35.390Z,99497.50
2023-01-26T05:15:02.328Z,99494.00
2023-01-26T05:17:28.926Z,99506.41
2023-01-26T05:19:55.641Z,99503.88
2023-01-26T05:22:22.264Z,99504.91
2023-01-26T05:24:49.084Z,99508.38
2023-01-26T05:27:21.831Z,99512.34
2023-01-26T05:29:49.869Z,99517.97
2023-01-26T05:32:16.878Z,99517.03
2023-01-26T05:34:43.591Z,99522.06
2023-01-26T05:37:11.669Z,99508.88
2023-01-26T05:39:39.343Z,99510.50
2023-01-26T05:42:05.973Z,99513.44
2023-01-26T05:44:32.810Z,99517.63
2023-01-26T05:46:59.409Z,99515.50
2023-01-26T05:49:26.532Z,99515.81
2023-01-26T05:51:53.329Z,99518.28
2023-01-26T05:54:20.121Z,99526.22
2023-01-26T05:56:46.886Z,99519.81
2023-01-26T05:59:13.751Z,99527.13
2023-01-26T06:01:40.503Z,99530.53
2023-01-26T06:04:07.285Z,99525.97
2023-01-26T06:06:33.891Z,99525.88
2023-01-26T06:09:00.904Z,99527.22
2023-01-26T06:11:27.643Z,99530.88
2023-01-26T06:13:54.661Z,99535.38
2023-01-26T06:16:21.490Z,99526.25
2023-01-26T06:18:49.968Z,99520.66
2023-01-26T06:21:17.022Z,99524.13
2023-01-26T06:23:44.243Z,99517.72
2023-01-26T06:26:11.089Z,99522.44
2023-01-26T06:28:37.827Z,99515.50
2023-01-26T06:31:06.162Z,99519.81
2023-01-26T06:33:36.768Z,99528.31
2023-01-26T06:36:11.680Z,99527.69
2023-01-26T06:38:39.204Z,99532.34
2023-01-26T06:41:07.836Z,99537.09
2023-01-26T06:43:35.683Z,99535.28
2023-01-26T06:46:04.187Z,99534.94
2023-01-26T06:48:35.635Z,99544.03
2023-01-26T06:51:44.470Z,99527.38
2023-01-26T06:54:12.449Z,99526.53
2023-01-26T06:56:40.591Z,99540.13
2023-01-26T06:59:07.228Z,99529.09
2023-01-26T07:01:36.982Z,99533.53
2023-01-26T07:04:03.813Z,99528.38
2023-01-26T07:06:30.772Z,99526.53
2023-01-26T07:08:57.387Z,99530.50
2023-01-26T07:11:25.772Z,99532.78
2023-01-26T07:13:52.650Z,99532.50
2023-01-26T07:16:20.441Z,99537.75
2023-01-26T07:18:47.221Z,99544.50
2023-01-26T07:21:19.116Z,99550.28
2023-01-26T07:23:47.230Z,99553.56
2023-01-26T07:26:14.794Z,99552.00
2023-01-26T07:28:42.020Z,99558.00
2023-01-26T07:31:09.316Z,99563.94
2023-01-26T07:33:36.349Z,99550.34
2023-01-26T07:36:04.471Z,99555.00
2023-01-26T07:38:31.637Z,99549.69
2023-01-26T07:40:58.418Z,99561.06
2023-01-26T07:43:25.133Z,99560.72
2023-01-26T07:45:54.260Z,99573.75
2023-01-26T07:48:22.863Z,99571.97
2023-01-26T07:50:50.168Z,99573.31
2023-01-26T07:53:23.345Z,99572.44
2023-01-26T07:55:50.783Z,99579.19
2023-01-26T07:58:18.897Z,99573.94
2023-01-26T08:00:48.431Z,99573.59
2023-01-26T08:03:15.168Z,99578.63
2023-01-26T08:05:43.369Z,99574.72
2023-01-26T08:08:10.675Z,99576.47
2023-01-26T08:10:37.419Z,99577.88
2023-01-26T08:13:04.280Z,99570.50
2023-01-26T08:15:31.005Z,99578.75
2023-01-26T08:17:57.863Z,99586.44
2023-01-26T08:20:24.645Z,99586.50
2023-01-26T08:22:51.315Z,99585.94
2023-01-26T08:25:17.924Z,99592.81
2023-01-26T08:27:44.826Z,99590.41
2023-01-26T08:30:12.917Z,99590.06
2023-01-26T08:32:39.954Z,99586.84
2023-01-26T08:35:08.265Z,99584.47
2023-01-26T08:37:35.109Z,99581.28
2023-01-26T08:40:02.023Z,99584.88
2023-01-26T08:42:29.199Z,99583.59
2023-01-26T08:44:56.367Z,99585.94
2023-01-26T08:47:22.990Z,99594.09
2023-01-26T08:49:49.631Z,99592.66
2023-01-26T08:52:17.222Z,99587.50
2023-01-26T08:54:44.278Z,99589.84
2023-01-26T08:57:12.429Z,99587.22
2023-01-26T08:59:39.185Z,99587.13
2023-01-26T09:02:06.155Z,99587.16
2023-01-26T09:04:33.556Z,99596.13
2023-01-26T09:07:00.792Z,99603.25
2023-01-26T09:09:27.531Z,99595.47
2023-01-26T09:11:57.400Z,99600.66
2023-01-26T09:14:24.155Z,99600.97
2023-01-26T09:16:51.182Z,99606.22
2023-01-26T09:19:18.269Z,99596.66
2023-01-26T09:21:44.949Z,99588.16
2023-01-26T09:24:11.866Z,99587.31
2023-01-26T09:26:39.004Z,99590.56
2023-01-26T09:29:05.616Z,99593.84
2023-01-26T09:31:32.490Z,99593.00
2023-01-26T09:33:59.208Z,99590.34
2023-01-26T09:36:25.880Z,99604.59
2023-01-26T09:38:54.324Z,99597.72
2023-01-26T09:41:44.441Z,99597.94
2023-01-26T09:44:22.647Z,99591.50
2023-01-26T09:47:10.462Z,99594.47
2023-01-26T09:49:50.211Z,99587.56
2023-01-26T09:52:38.768Z,99582.44
2023-01-26T09:55:09.879Z,99582.69
2023-01-26T09:57:40.664Z,99576.88
2023-01-26T10:00:31.730Z,99583.25
2023-01-26T10:03:25.163Z,99589.63
2023-01-26T10:06:13.650Z,99589.06
2023-01-26T10:08:42.201Z,99575.13
2023-01-26T10:11:19.118Z,99582.75
2023-01-26T10:13:52.283Z,99578.53
2023-01-26T10:16:19.304Z,99581.63
2023-01-26T10:18:59.712Z,99568.91
2023-01-26T10:21:34.080Z,99568.47
2023-01-26T10:24:03.186Z,99572.56
2023-01-26T10:26:33.512Z,99555.91
2023-01-26T10:29:00.607Z,99565.53
2023-01-26T10:31:29.781Z,99562.84
2023-01-26T10:34:17.808Z,99566.44
2023-01-26T10:36:46.119Z,99552.13
2023-01-26T10:39:17.819Z,99556.50
2023-01-26T10:42:00.915Z,99559.63
2023-01-26T10:44:38.744Z,99543.53
2023-01-26T10:47:18.030Z,99548.34
2023-01-26T10:49:44.886Z,99551.50
2023-01-26T10:52:21.878Z,99555.25
2023-01-26T10:54:50.003Z,99552.56
2023-01-26T10:57:28.398Z,99548.00
2023-01-26T11:00:00.988Z,99537.13
2023-01-26T11:02:31.877Z,99541.81
2023-01-26T11:05:16.072Z,99542.81
2023-01-26T11:07:45.465Z,99545.00
2023-01-26T11:10:32.085Z,99538.81
2023-01-26T11:13:28.974Z,99537.31
2023-01-26T11:16:06.943Z,99525.22
2023-01-26T11:18:58.521Z,99530.25
2023-01-26T11:21:47.212Z,99525.81
2023-01-26T11:24:26.443Z,99521.66
2023-01-26T11:27:26.586Z,99518.03
2023-01-26T11:30:06.502Z,99514.63
2023-01-26T11:32:55.757Z,99506.72
2023-01-26T11:35:51.155Z,99496.34
2023-01-26T11:38:39.692Z,99501.38
2023-01-26T11:41:36.705Z,99496.72
2023-01-26T11:44:21.221Z,99495.16
2023-01-26T11:47:06.836Z,99487.59
2023-01-26T11:50:18.623Z,99483.91
2023-01-26T11:53:25.433Z,99474.41
2023-01-26T11:56:13.402Z,99463.97
2023-01-26T11:58:48.861Z,99475.50
2023-01-26T12:01:29.154Z,99475.72
2023-01-26T12:03:57.402Z,99471.63
2023-01-26T12:06:44.516Z,99469.25
2023-01-26T12:09:23.931Z,99458.03
2023-01-26T12:12:40.152Z,99478.41
2023-01-26T12:15:13.130Z,99467.16
2023-01-26T12:18:16.148Z,99453.34
2023-01-26T12:20:47.136Z,99456.28
2023-01-26T12:23:28.194Z,99457.63
2023-01-26T12:26:01.965Z,99451.84
2023-01-26T12:28:43.709Z,99448.16
2023-01-26T12:31:23.765Z,99445.63
2023-01-26T12:33:54.050Z,99440.34
2023-01-26T12:36:39.699Z,99426.78
2023-01-26T12:39:24.398Z,99431.81
2023-01-26T12:42:04.134Z,99432.59
2023-01-26T12:44:40.148Z,99427.94
2023-01-26T12:47:18.906Z,99427.41
2023-01-26T12:50:17.778Z,99427.03
2023-01-26T12:52:57.271Z,99425.44
2023-01-26T12:55:31.156Z,99429.06
2023-01-26T12:58:03.675Z,99429.88
2023-01-26T13:00:33.782Z,99431.28
2023-01-26T13:03:05.466Z,99431.16
2023-01-26T13:05:36.140Z,99428.38
2023-01-26T13:08:53.829Z,99425.16
2023-01-26T13:11:43.248Z,99422.41
2023-01-26T13:14:37.987Z,99422.91
2023-01-26T13:17:53.293Z,99419.66
2023-01-26T13:20:44.211Z,99420.84
2023-01-26T13:23:52.626Z,99418.97
2023-01-26T13:26:22.309Z,99411.34
2023-01-26T13:28:49.995Z,99411.34
2023-01-26T13:31:35.054Z,99400.03
2023-01-26T13:34:06.597Z,99405.06
2023-01-26T13:36:36.244Z,99408.97
2023-01-26T13:39:13.481Z,99409.78
2023-01-26T13:41:47.135Z,99412.59
2023-01-26T13:44:20.998Z,99410.16
2023-01-26T13:46:56.219Z,99411.56
2023-01-26T13:49:47.697Z,99412.19
2023-01-26T13:52:26.182Z,99417.25
2023-01-26T13:55:00.899Z,99414.69
2023-01-26T13:57:30.472Z,99425.09
2023-01-26T14:00:02.159Z,99414.69
2023-01-26T14:02:34.371Z,99418.34
2023-01-26T14:05:02.255Z,99411.28
2023-01-26T14:07:41.524Z,99406.94
2023-01-26T14:10:09.186Z,99411.34
2023-01-26T14:12:44.195Z,99418.06
2023-01-26T14:15:27.553Z,99424.47
2023-01-26T14:18:00.435Z,99425.22
2023-01-26T14:20:30.674Z,99427.19
2023-01-26T14:23:15.574Z,99423.50
2023-01-26T14:25:47.020Z,99430.75
2023-01-26T14:28:18.169Z,99433.78
2023-01-26T14:30:45.543Z,99435.50
2023-01-26T14:33:17.088Z,99440.38
2023-01-26T14:35:55.786Z,99439.81
2023-01-26T14:38:22.689Z,99431.72
2023-01-26T14:40:52.694Z,99436.88
2023-01-26T14:43:19.994Z,99442.13
2023-01-26T14:46:03.648Z,99433.84
2023-01-26T14:48:33.984Z,99440.09
2023-01-26T14:51:02.817Z,99430.81
2023-01-26T14:53:29.561Z,99440.38
2023-01-26T14:55:56.185Z,99435.09
2023-01-26T14:58:26.144Z,99437.34
2023-01-26T15:00:53.106Z,99438.66
2023-01-26T15:03:28.617Z,99436.06
2023-01-26T15:06:06.350Z,99440.31
2023-01-26T15:08:36.095Z,99439.34
2023-01-26T15:11:22.830Z,99439.28
2023-01-26T15:13:54.666Z,99443.59
2023-01-26T15:16:29.444Z,99446.94
2023-01-26T15:18:59.821Z,99441.53
2023-01-26T15:21:34.737Z,99446.59
2023-01-26T15:24:01.417Z,99446.53
2023-01-26T15:26:36.419Z,99443.72
2023-01-26T15:29:23.500Z,99438.09
2023-01-26T15:31:59.871Z,99447.22
2023-01-26T15:34:38.133Z,99438.44
2023-01-26T15:37:28.428Z,99439.13
2023-01-26T15:39:56.024Z,99443.94
2023-01-26T15:42:25.041Z,99434.13
2023-01-26T15:44:51.782Z,99443.25
2023-01-26T15:47:18.782Z,99446.41
2023-01-26T15:49:45.451Z,99443.88
2023-01-26T15:52:17.713Z,99442.00
2023-01-26T15:54:45.171Z,99446.81
2023-01-26T15:57:12.680Z,99444.69
2023-01-26T15:59:40.371Z,99447.44
2023-01-26T16:02:14.664Z,99442.34
2023-01-26T16:04:41.873Z,99443.25
2023-01-26T16:07:16.825Z,99451.75
2023-01-26T16:09:44.426Z,99445.91
2023-01-26T16:12:32.669Z,99448.34
2023-01-26T16:15:00.196Z,99454.28
2023-01-26T16:17:26.952Z,99442.50
2023-01-26T16:19:53.579Z,99439.53
2023-01-26T16:22:21.121Z,99444.56
2023-01-26T16:24:47.783Z,99437.53
2023-01-26T16:27:14.958Z,99449.63
2023-01-26T16:29:41.664Z,99451.34
2023-01-26T16:32:28.837Z,99449.63
2023-01-26T16:34:55.732Z,99450.31
2023-01-26T16:37:23.923Z,99454.78
2023-01-26T16:39:50.773Z,99450.31
2023-01-26T16:42:19.359Z,99451.06
2023-01-26T16:44:46.571Z,99456.47
2023-01-26T16:47:13.284Z,99455.94
2023-01-26T16:49:40.103Z,99451.69
2023-01-26T16:52:09.235Z,99452.72
2023-01-26T16:54:35.940Z,99455.03
2023-01-26T16:57:02.633Z,99446.41
2023-01-26T16:59:29.625Z,99444.63
2023-01-26T17:01:57.097Z,99444.63
2023-01-26T17:04:23.808Z,99444.34
2023-01-26T17:06:50.810Z,99444.94
2023-01-26T17:09:22.141Z,99445.44
2023-01-26T17:11:49.176Z,99448.78
2023-01-26T17:14:16.086Z,99445.22
2023-01-26T17:16:43.089Z,99445.84
2023-01-26T17:19:10.129Z,99445.16
2023-01-26T17:21:37.272Z,99445.06
2023-01-26T17:24:04.319Z,99443.25
2023-01-26T17:26:31.450Z,99441.91
2023-01-26T17:28:58.095Z,99443.03
2023-01-26T17:31:25.581Z,99445.84
2023-01-26T17:33:52.750Z,99443.38
2023-01-26T17:36:20.527Z,99443.31
2023-01-26T17:38:50.421Z,99442.50
2023-01-26T17:41:18.032Z,99443.03
2023-01-26T17:43:45.428Z,99442.63
2023-01-26T17:46:14.368Z,99438.50
2023-01-26T17:48:41.105Z,99452.97
2023-01-26T17:51:09.679Z,99455.13
2023-01-26T17:53:38.415Z,99456.88
2023-01-26T17:56:08.484Z,99454.97
2023-01-26T17:58:36.595Z,99457.72
2023-01-26T18:01:04.583Z,99449.34
2023-01-26T18:03:35.108Z,99453.31
2023-01-26T18:06:02.087Z,99455.13
2023-01-26T18:08:28.789Z,99449.03
2023-01-26T18:11:02.962Z,99451.84
2023-01-26T18:13:31.120Z,99451.00
2023-01-26T18:15:58.444Z,99439.00
2023-01-26T18:18:27.987Z,99444.91
2023-01-26T18:20:55.807Z,99450.72
2023-01-26T18:23:23.520Z,99452.38
2023-01-26T18:25:51.044Z,99445.06
2023-01-26T18:28:18.032Z,99445.69
2023-01-26T18:30:49.219Z,99455.19
2023-01-26T18:33:15.788Z,99448.13
2023-01-26T18:35:43.121Z,99457.44
2023-01-26T18:38:09.793Z,99449.25
2023-01-26T18:40:43.379Z,99441.22
2023-01-26T18:43:10.112Z,99439.75
2023-01-26T18:45:36.840Z,99440.50
2023-01-26T18:48:03.975Z,99436.59
2023-01-26T18:50:31.393Z,99429.75
2023-01-26T18:53:02.285Z,99438.28
2023-01-26T18:55:29.094Z,99438.00
2023-01-26T18:57:56.055Z,99437.94
2023-01-26T19:00:22.994Z,99438.13
2023-01-26T19:02:49.740Z,99436.59
2023-01-26T19:05:17.441Z,99427.94
2023-01-26T19:07:44.282Z,99429.47
2023-01-26T19:10:11.175Z,99423.41
2023-01-26T19:12:37.846Z,99428.97
2023-01-26T19:15:04.997Z,99437.03
2023-01-26T19:17:31.797Z,99425.81
2023-01-26T19:19:58.524Z,99431.69
2023-01-26T19:22:25.182Z,99433.22
2023-01-26T19:27:24.316Z,99437.09
2023-01-26T19:29:52.166Z,99427.44
2023-01-26T19:32:18.940Z,99436.34
2023-01-26T19:34:45.624Z,99431.91
2023-01-26T19:37:12.268Z,99444.00
2023-01-26T19:39:39.043Z,99428.63
2023-01-26T19:42:06.191Z,99435.13
2023-01-26T19:44:33.146Z,99428.19
2023-01-26T19:46:59.786Z,99423.25
2023-01-26T19:49:26.784Z,99429.94
2023-01-26T19:51:54.239Z,99422.31
2023-01-26T19:54:20.900Z,99438.81
2023-01-26T19:56:47.945Z,99425.69
2023-01-26T19:59:14.600Z,99426.44
2023-01-26T20:01:44.937Z,99428.47
2023-01-26T20:04:14.230Z,99431.69
2023-01-26T20:06:42.228Z,99429.94
2023-01-26T20:09:12.522Z,99428.91
2023-01-26T20:11:39.369Z,99428.66
2023-01-26T20:14:08.984Z,99430.69
2023-01-26T20:16:36.486Z,99434.06
2023-01-26T20:19:03.861Z,99438.47
2023-01-26T20:21:31.897Z,99436.03
2023-01-26T20:24:05.700Z,99434.06
2023-01-26T20:26:33.154Z,99430.88
2023-01-26T20:29:01.521Z,99436.97
2023-01-26T20:31:28.309Z,99438.09
2023-01-26T20:33:55.281Z,99435.75
2023-01-26T20:36:24.972Z,99437.72
2023-01-26T20:38:51.989Z,99446.50
2023-01-26T20:41:22.292Z,99446.09
2023-01-26T20:43:59.085Z,99448.81
2023-01-26T20:46:29.609Z,99441.81
2023-01-26T20:48:56.986Z,99441.34
2023-01-26T20:51:30.610Z,99437.31
2023-01-26T20:53:57.964Z,99430.00
2023-01-26T20:56:24.886Z,99426.44
2023-01-26T20:58:55.869Z,99430.56
2023-01-26T21:01:23.637Z,99435.88
2023-01-26T21:03:55.263Z,99434.88
2023-01-26T21:06:24.354Z,99439.09
2023-01-26T21:08:54.313Z,99430.69
2023-01-26T21:11:23.279Z,99434.34
2023-01-26T21:13:50.493Z,99434.50
2023-01-26T21:16:19.136Z,99429.16
2023-01-26T21:18:46.680Z,99428.75
2023-01-26T21:21:17.855Z,99428.59
2023-01-26T21:23:45.517Z,99427.19
2023-01-26T21:26:14.988Z,99430.41
2023-01-26T21:28:42.002Z,99431.19
2023-01-26T21:31:14.212Z,99425.75
2023-01-26T21:33:45.921Z,99428.69
2023-01-26T21:36:15.560Z,99429.63
2023-01-26T21:38:45.555Z,99429.16
2023-01-26T21:41:45.049Z,99427.06
2023-01-26T21:44:14.592Z,99415.50
2023-01-26T21:46:42.513Z,99420.53
2023-01-26T21:49:10.105Z,99417.03
2023-01-26T21:51:55.725Z,99418.75
2023-01-26T21:54:22.687Z,99418.56
2023-01-26T21:56:49.576Z,99419.41
2023-01-26T21:59:17.343Z,99422.97
2023-01-26T22:01:49.509Z,99420.66
2023-01-26T22:04:24.760Z,99416.84
2023-01-26T22:06:52.450Z,99420.38
2023-01-26T22:09:19.588Z,99420.97
2023-01-26T22:11:46.769Z,99426.63
2023-01-26T22:14:21.303Z,99424.19
2023-01-26T22:16:48.250Z,99427.38
2023-01-26T22:19:15.485Z,99434.81
2023-01-26T22:21:42.835Z,99428.44
2023-01-26T22:24:12.066Z,99428.44
2023-01-26T22:26:39.430Z,99430.22
2023-01-26T22:29:06.839Z,99429.00
2023-01-26T22:31:34.931Z,99428.97
2023-01-26T22:34:02.475Z,99422.31
2023-01-26T22:36:29.540Z,99427.03
2023-01-26T22:38:56.554Z,99427.19
2023-01-26T22:41:27.805Z,99432.28
2023-01-26T22:43:55.525Z,99440.59
2023-01-26T22:46:23.877Z,99434.19
2023-01-26T22:48:51.571Z,99436.38
2023-01-26T22:51:21.551Z,99435.16
2023-01-26T22:53:49.951Z,99440.63
2023-01-26T22:56:16.900Z,99441.63
2023-01-26T22:58:57.058Z,99441.72
2023-01-26T23:01:25.156Z,99435.13
2023-01-26T23:03:53.176Z,99443.91
2023-01-26T23:06:20.667Z,99443.69
2023-01-26T23:08:47.584Z,99440.91
2023-01-26T23:11:16.936Z,99440.13
2023-01-26T23:13:45.112Z,99444.78
2023-01-26T23:16:12.137Z,99441.28
2023-01-26T23:18:39.250Z,99437.28
2023-01-26T23:21:06.887Z,99437.94
2023-01-26T23:23:33.874Z,99443.22
2023-01-26T23:26:00.741Z,99443.34
2023-01-26T23:28:33.478Z,99435.63
2023-01-26T23:31:00.848Z,99434.53
2023-01-26T23:33:29.790Z,99429.84
2023-01-26T23:35:56.980Z,99433.31
2023-01-26T23:38:25.074Z,99430.97
2023-01-26T23:40:52.401Z,99425.09
2023-01-26T23:43:19.773Z,99431.81
2023-01-26T23:45:47.919Z,99424.25
2023-01-26T23:48:15.227Z,99428.81
2023-01-26T23:50:42.757Z,99432.09
2023-01-26T23:53:09.603Z,99430.72
2023-01-26T23:55:41.088Z,99435.16
2023-01-26T23:58:08.236Z,99432.59
